Time;durP1;ratioP1;P1;durP2;ratioP2;P2;SDS_P1;SDS_P2;PMS_P1;PMS_P2;Temp;Humidity;BMP_temperature;BMP_pressure;BME280_temperature;BME280_humidity;BME280_pressure;Samples;Min_cycle;Max_cycle;Signal;HPM_P1;HPM_P2
2024/04/18 00:00:08;;;;;;;4.80;3.53;;;;;;;7.79;77.80;92058.50;568710;26;802;-73
2024/04/18 00:00:24;;;;;;;4.25;3.42;;;;;;;7.79;77.73;92053.00;568819;26;1008;-73
2024/04/18 00:00:39;;;;;;;3.90;3.50;;;;;;;7.82;77.83;92058.09;569038;26;809;-73
2024/04/18 00:00:55;;;;;;;4.43;3.93;;;;;;;7.83;77.64;92048.56;568993;26;841;-73
2024/04/18 00:01:10;;;;;;;4.63;4.07;;;;;;;7.86;78.03;92052.22;568949;26;797;-73
2024/04/18 00:01:26;;;;;;;4.50;4.03;;;;;;;7.86;78.01;92050.19;568857;26;865;-73
2024/04/18 00:01:41;;;;;;;4.17;3.77;;;;;;;7.85;78.24;92048.00;568934;26;909;-73
2024/04/18 00:01:57;;;;;;;3.70;3.40;;;;;;;7.88;77.96;92053.09;568965;26;794;-73
2024/04/18 00:02:12;;;;;;;3.70;3.33;;;;;;;7.89;78.18;92051.81;568989;26;817;-73
2024/04/18 00:02:28;;;;;;;3.92;3.53;;;;;;;7.90;78.26;92047.78;568876;26;928;-73
2024/04/18 00:02:43;;;;;;;4.10;3.70;;;;;;;7.91;78.21;92049.22;569025;26;761;-73
2024/04/18 00:02:59;;;;;;;4.28;3.63;;;;;;;7.94;78.17;92048.09;568673;26;841;-73
2024/04/18 00:03:14;;;;;;;3.90;3.50;;;;;;;7.95;78.11;92048.81;568981;26;813;-73
2024/04/18 00:03:30;;;;;;;3.63;3.33;;;;;;;7.95;77.83;92048.81;568845;26;907;-72
2024/04/18 00:03:45;;;;;;;3.60;3.30;;;;;;;7.98;77.79;92053.19;568946;26;822;-73
2024/04/18 00:04:01;;;;;;;3.53;3.22;;;;;;;7.98;77.65;92048.41;568916;26;833;-73
2024/04/18 00:04:16;;;;;;;3.53;3.23;;;;;;;8.01;77.72;92047.28;568806;26;821;-73
2024/04/18 00:04:32;;;;;;;4.00;3.67;;;;;;;8.04;77.51;92048.16;568932;26;837;-73
2024/04/18 00:04:47;;;;;;;4.03;3.67;;;;;;;8.05;77.44;92044.13;568953;26;797;-73
2024/04/18 00:05:03;;;;;;;3.70;3.28;;;;;;;8.06;77.66;92049.06;568932;26;825;-73
2024/04/18 00:05:19;;;;;;;4.15;3.30;;;;;;;8.07;77.37;92049.78;568849;26;849;-73
2024/04/18 00:05:34;;;;;;;4.20;3.37;;;;;;;8.09;77.42;92041.69;568859;26;790;-73
2024/04/18 00:05:50;;;;;;;4.72;3.63;;;;;;;8.09;77.44;92055.44;568911;26;835;-73
2024/04/18 00:06:05;;;;;;;4.77;4.10;;;;;;;8.10;77.58;92049.38;568914;26;790;-72
2024/04/18 00:06:21;;;;;;;4.13;3.67;;;;;;;8.10;77.50;92052.13;568920;26;804;-72
2024/04/18 00:06:36;;;;;;;4.13;3.27;;;;;;;8.12;77.74;92054.31;568884;26;817;-72
2024/04/18 00:06:52;;;;;;;3.65;3.13;;;;;;;8.14;77.85;92049.69;569041;26;821;-73
2024/04/18 00:07:07;;;;;;;3.63;3.33;;;;;;;8.16;77.76;92055.38;568769;26;794;-73
2024/04/18 00:07:23;;;;;;;3.72;3.38;;;;;;;8.18;77.66;92054.81;568930;26;805;-72
2024/04/18 00:07:38;;;;;;;3.87;3.47;;;;;;;8.18;77.85;92052.78;568979;26;793;-72
2024/04/18 00:07:53;;;;;;;3.87;3.50;;;;;;;8.17;78.03;92056.09;568843;26;896;-71
2024/04/18 00:08:09;;;;;;;3.97;3.53;;;;;;;8.11;78.13;92061.09;568844;26;952;-70
2024/04/18 00:08:24;;;;;;;4.27;3.60;;;;;;;8.07;78.16;92052.53;568734;26;801;-72
2024/04/18 00:08:40;;;;;;;3.80;3.40;;;;;;;8.04;78.22;92051.66;568980;26;939;-72
2024/04/18 00:08:56;;;;;;;3.63;3.28;;;;;;;8.05;78.43;92052.38;568992;26;842;-72
2024/04/18 00:09:11;;;;;;;3.70;3.40;;;;;;;8.05;78.49;92053.13;568803;26;858;-72
2024/04/18 00:09:27;;;;;;;4.18;3.78;;;;;;;8.06;78.59;92048.31;568843;26;790;-72
2024/04/18 00:09:42;;;;;;;4.33;3.53;;;;;;;8.07;78.28;92044.28;568882;26;805;-72
2024/04/18 00:09:58;;;;;;;4.25;3.35;;;;;;;8.07;78.36;92049.78;568780;26;935;-72
2024/04/18 00:10:14;;;;;;;4.77;3.60;;;;;;;8.06;78.09;92037.31;568895;26;794;-72
2024/04/18 00:10:29;;;;;;;4.88;3.55;;;;;;;8.08;78.01;92037.50;568909;26;818;-72
2024/04/18 00:10:45;;;;;;;4.20;3.53;;;;;;;8.08;78.13;92040.22;568843;26;1271;-72
2024/04/18 00:11:00;;;;;;;4.03;3.63;;;;;;;8.09;78.10;92045.19;568945;26;802;-72
2024/04/18 00:11:16;;;;;;;4.32;3.67;;;;;;;8.08;78.28;92040.22;568823;26;904;-72
2024/04/18 00:11:31;;;;;;;4.30;3.60;;;;;;;8.09;78.00;92042.44;568874;26;905;-72
2024/04/18 00:11:47;;;;;;;4.22;3.30;;;;;;;8.07;78.00;92034.03;568901;26;817;-72
2024/04/18 00:12:02;;;;;;;4.53;3.53;;;;;;;8.13;78.05;92042.03;569052;26;822;-73
2024/04/18 00:12:18;;;;;;;4.25;3.67;;;;;;;8.14;78.14;92043.50;568828;26;860;-72
2024/04/18 00:12:33;;;;;;;3.93;3.47;;;;;;;8.14;78.08;92033.19;568793;26;833;-72
2024/04/18 00:12:49;;;;;;;4.05;3.63;;;;;;;8.15;77.94;92040.16;568921;26;912;-72
2024/04/18 00:13:04;;;;;;;4.73;3.90;;;;;;;8.16;78.00;92030.63;568957;26;852;-72
2024/04/18 00:13:20;;;;;;;4.80;3.83;;;;;;;8.17;77.60;92032.06;568864;26;865;-72
2024/04/18 00:13:35;;;;;;;4.00;3.35;;;;;;;8.16;77.81;92035.41;568943;26;868;-72
2024/04/18 00:13:51;;;;;;;4.00;3.27;;;;;;;8.16;77.71;92041.63;568936;26;932;-72
2024/04/18 00:14:06;;;;;;;3.85;3.25;;;;;;;8.17;77.52;92039.59;568805;26;761;-72
2024/04/18 00:14:22;;;;;;;3.43;3.13;;;;;;;8.18;77.76;92038.31;568876;26;789;-72
2024/04/18 00:14:37;;;;;;;3.55;3.25;;;;;;;8.18;77.58;92041.78;568845;26;830;-72
2024/04/18 00:14:52;;;;;;;3.70;3.40;;;;;;;8.20;77.77;92041.22;568978;26;798;-72
2024/04/18 00:15:08;;;;;;;3.58;3.28;;;;;;;8.21;77.65;92039.91;568865;26;849;-72
2024/04/18 00:15:23;;;;;;;3.70;3.40;;;;;;;8.19;77.74;92039.75;568846;26;845;-72
2024/04/18 00:15:39;;;;;;;4.18;3.70;;;;;;;8.19;77.77;92037.00;568861;26;806;-72
2024/04/18 00:15:54;;;;;;;4.17;3.60;;;;;;;8.17;77.62;92036.84;568951;26;974;-72
2024/04/18 00:16:10;;;;;;;3.80;3.40;;;;;;;8.17;77.73;92040.31;568750;26;1845;-72
2024/04/18 00:16:25;;;;;;;3.50;3.00;;;;;;;8.18;77.70;92038.31;568933;26;766;-72
2024/04/18 00:16:41;;;;;;;3.80;3.08;;;;;;;8.18;77.60;92036.28;568891;26;846;-72
2024/04/18 00:16:56;;;;;;;3.87;3.47;;;;;;;8.18;78.07;92036.28;568880;26;838;-72
2024/04/18 00:17:12;;;;;;;3.57;3.27;;;;;;;8.20;77.95;92035.72;568900;26;864;-73
2024/04/18 00:17:27;;;;;;;3.33;3.03;;;;;;;8.21;77.82;92037.16;568951;26;881;-72
2024/04/18 00:17:43;;;;;;;3.57;3.20;;;;;;;8.21;78.07;92037.16;569033;26;952;-72
2024/04/18 00:17:58;;;;;;;4.05;3.50;;;;;;;8.22;77.77;92033.84;568777;26;822;-72
2024/04/18 00:18:14;;;;;;;3.90;3.40;;;;;;;8.23;78.13;92040.78;568749;26;818;-72
2024/04/18 00:18:29;;;;;;;3.78;3.40;;;;;;;8.24;78.07;92033.28;568843;26;826;-72
2024/04/18 00:18:45;;;;;;;4.00;3.50;;;;;;;8.26;78.08;92036.22;568990;26;769;-72
2024/04/18 00:19:00;;;;;;;4.07;3.55;;;;;;;8.26;77.93;92036.94;568872;26;844;-72
2024/04/18 00:19:16;;;;;;;3.83;3.47;;;;;;;8.27;77.77;92040.44;568926;26;1018;-72
2024/04/18 00:19:31;;;;;;;3.70;3.30;;;;;;;8.28;77.83;92037.09;568875;26;896;-72
2024/04/18 00:19:47;;;;;;;3.92;3.33;;;;;;;8.30;78.02;92039.28;568913;26;856;-72
2024/04/18 00:20:03;;;;;;;4.40;3.53;;;;;;;8.28;78.04;92039.13;568971;26;1061;-72
2024/04/18 00:20:19;;;;;;;4.15;3.65;;;;;;;8.30;78.07;92034.50;568786;26;825;-72
2024/04/18 00:20:34;;;;;;;3.97;3.42;;;;;;;8.32;78.08;92039.44;568972;26;817;-72
2024/04/18 00:20:50;;;;;;;4.27;3.27;;;;;;;8.32;78.19;92034.66;568860;26;900;-72
2024/04/18 00:21:05;;;;;;;3.83;3.28;;;;;;;8.34;78.05;92042.34;568888;26;901;-72
2024/04/18 00:21:21;;;;;;;3.80;3.37;;;;;;;8.34;77.96;92039.59;568832;26;879;-72
2024/04/18 00:21:36;;;;;;;3.90;3.50;;;;;;;8.33;77.90;92041.63;568903;26;917;-72
2024/04/18 00:21:51;;;;;;;3.90;3.50;;;;;;;8.34;77.76;92040.31;568945;26;833;-72
2024/04/18 00:22:07;;;;;;;4.27;3.30;;;;;;;8.33;77.61;92036.13;568731;26;1469;-72
2024/04/18 00:22:22;;;;;;;4.18;3.25;;;;;;;8.33;77.87;92044.38;568838;26;968;-72
2024/04/18 00:22:38;;;;;;;3.87;3.47;;;;;;;8.34;77.91;92042.34;568873;26;771;-72
2024/04/18 00:22:53;;;;;;;3.95;3.33;;;;;;;8.35;77.86;92046.56;568942;26;825;-72
2024/04/18 00:23:09;;;;;;;4.07;3.23;;;;;;;8.33;77.82;92041.63;568744;26;925;-72
2024/04/18 00:23:24;;;;;;;4.30;3.25;;;;;;;8.36;77.86;92042.50;568839;26;858;-72
2024/04/18 00:23:40;;;;;;;3.80;3.13;;;;;;;8.36;77.93;92037.00;568781;26;834;-72
2024/04/18 00:23:55;;;;;;;3.92;3.28;;;;;;;8.36;77.83;92043.25;568859;26;1008;-72
2024/04/18 00:24:11;;;;;;;3.77;3.37;;;;;;;8.38;77.74;92051.66;568956;26;778;-73
2024/04/18 00:24:27;;;;;;;3.70;3.40;;;;;;;8.38;77.72;92048.19;568781;26;872;-72
2024/04/18 00:24:44;;;;;;;3.85;3.55;;;;;;;8.38;77.67;92037.91;568949;26;845;-72
2024/04/18 00:25:00;;;;;;;3.83;3.53;;;;;;;8.40;77.73;92048.34;568758;26;869;-73
2024/04/18 00:25:16;;;;;;;3.80;3.40;;;;;;;8.42;77.80;92048.50;568918;26;786;-73
2024/04/18 00:25:32;;;;;;;3.90;3.10;;;;;;;8.43;77.99;92041.69;568819;26;894;-72
2024/04/18 00:25:48;;;;;;;3.58;3.20;;;;;;;8.44;77.82;92045.19;568905;26;817;-72
2024/04/18 00:26:03;;;;;;;3.65;3.33;;;;;;;8.45;77.94;92044.59;568900;26;833;-72
2024/04/18 00:26:19;;;;;;;3.70;3.37;;;;;;;8.46;77.95;92048.81;568796;26;838;-72
2024/04/18 00:26:34;;;;;;;3.72;3.38;;;;;;;8.46;77.73;92042.59;568824;26;849;-73
2024/04/18 00:26:50;;;;;;;3.53;3.20;;;;;;;8.45;77.73;92044.59;568848;26;893;-72
2024/04/18 00:27:05;;;;;;;3.60;3.20;;;;;;;8.40;77.60;92037.34;568818;26;794;-72
2024/04/18 00:27:21;;;;;;;3.58;3.00;;;;;;;8.29;77.80;92013.81;568948;26;817;-73
2024/04/18 00:27:36;;;;;;;3.38;2.97;;;;;;;8.48;77.69;92048.25;568780;26;839;-73
2024/04/18 00:27:52;;;;;;;3.37;3.03;;;;;;;8.46;77.21;92048.09;568792;26;919;-72
2024/04/18 00:28:08;;;;;;;3.50;3.13;;;;;;;8.48;76.61;92048.97;568710;26;961;-73
2024/04/18 00:28:23;;;;;;;3.58;3.22;;;;;;;8.46;76.70;92043.31;568923;26;829;-72
2024/04/18 00:28:39;;;;;;;3.57;3.27;;;;;;;8.46;76.60;92048.09;568934;26;945;-72
2024/04/18 00:28:54;;;;;;;3.63;3.03;;;;;;;8.44;76.44;92048.66;568971;26;837;-72
2024/04/18 00:29:10;;;;;;;3.50;2.90;;;;;;;8.45;76.22;92050.09;568711;26;908;-73
2024/04/18 00:29:25;;;;;;;3.43;3.10;;;;;;;8.44;76.28;92045.19;568827;26;854;-73
2024/04/18 00:29:41;;;;;;;3.80;3.15;;;;;;;8.44;76.00;92045.19;568867;26;795;-72
2024/04/18 00:29:56;;;;;;;4.00;3.03;;;;;;;8.38;76.54;92043.41;568797;26;901;-72
2024/04/18 00:30:11;;;;;;;4.00;3.30;;;;;;;8.38;76.40;92045.44;568905;26;794;-73
2024/04/18 00:30:27;;;;;;;3.93;3.53;;;;;;;8.35;76.57;92044.53;568813;26;802;-72
2024/04/18 00:30:42;;;;;;;3.53;3.22;;;;;;;8.35;76.32;92046.56;568825;26;841;-72
2024/04/18 00:30:58;;;;;;;3.20;2.90;;;;;;;8.34;76.14;92042.34;568930;26;925;-72
2024/04/18 00:31:13;;;;;;;3.22;2.80;;;;;;;8.34;75.97;92043.06;568932;26;790;-73
2024/04/18 00:31:29;;;;;;;3.60;3.07;;;;;;;8.33;75.93;92041.63;568761;26;783;-72
2024/04/18 00:31:44;;;;;;;3.50;3.20;;;;;;;8.33;75.91;92046.41;568920;26;869;-72
2024/04/18 00:32:00;;;;;;;3.40;3.10;;;;;;;8.34;75.96;92042.34;568778;26;897;-73
2024/04/18 00:32:15;;;;;;;3.30;3.00;;;;;;;8.33;75.97;92043.66;568931;26;909;-72
2024/04/18 00:32:30;;;;;;;3.45;3.15;;;;;;;8.33;76.03;92038.88;568809;26;830;-72
2024/04/18 00:32:46;;;;;;;3.80;3.37;;;;;;;8.32;76.02;92037.41;568894;26;893;-73
2024/04/18 00:33:01;;;;;;;3.67;3.20;;;;;;;8.30;76.12;92037.25;568891;26;810;-73
2024/04/18 00:33:17;;;;;;;3.50;3.13;;;;;;;8.27;76.35;92041.13;568613;26;786;-73
2024/04/18 00:33:32;;;;;;;3.17;2.83;;;;;;;8.26;76.66;92034.19;568920;26;831;-72
2024/04/18 00:33:48;;;;;;;3.73;2.73;;;;;;;8.27;76.76;92041.13;568854;26;964;-72
2024/04/18 00:34:04;;;;;;;4.38;3.13;;;;;;;8.27;76.76;92034.94;568885;26;959;-72
2024/04/18 00:34:20;;;;;;;3.83;3.22;;;;;;;8.28;76.89;92039.13;568741;26;870;-72
2024/04/18 00:34:35;;;;;;;5.13;3.33;;;;;;;8.27;77.15;92037.69;568913;26;829;-72
2024/04/18 00:34:51;;;;;;;5.70;3.55;;;;;;;8.27;77.32;92035.63;568917;26;861;-72
2024/04/18 00:35:06;;;;;;;4.40;3.47;;;;;;;8.10;77.29;92019.13;568766;26;905;-72
2024/04/18 00:35:22;;;;;;;3.92;3.25;;;;;;;8.28;77.40;92039.84;568871;26;817;-72
2024/04/18 00:35:38;;;;;;;4.23;3.50;;;;;;;8.30;77.48;92040.00;568753;26;793;-72
2024/04/18 00:35:53;;;;;;;4.70;3.65;;;;;;;8.30;77.58;92042.03;568960;26;881;-72
2024/04/18 00:36:09;;;;;;;3.93;3.40;;;;;;;8.31;77.54;92044.22;568694;26;1846;-72
2024/04/18 00:36:25;;;;;;;3.85;3.10;;;;;;;8.33;77.69;92046.41;568862;26;893;-73
2024/04/18 00:36:40;;;;;;;4.30;3.17;;;;;;;8.28;77.82;92044.63;568916;26;877;-72
2024/04/18 00:36:56;;;;;;;3.72;3.03;;;;;;;8.26;77.87;92039.69;568951;26;790;-73
2024/04/18 00:37:11;;;;;;;3.33;2.90;;;;;;;8.27;77.81;92046.63;569237;26;861;-72
2024/04/18 00:37:26;;;;;;;3.72;3.05;;;;;;;8.27;78.03;92046.63;569079;26;842;-73
2024/04/18 00:37:42;;;;;;;3.67;3.00;;;;;;;8.29;78.01;92055.03;569291;26;818;-73
2024/04/18 00:37:57;;;;;;;3.47;3.10;;;;;;;8.29;77.97;92048.84;569184;26;862;-73
2024/04/18 00:38:13;;;;;;;3.50;3.20;;;;;;;8.30;77.95;92050.28;569285;26;782;-72
2024/04/18 00:38:29;;;;;;;3.35;3.05;;;;;;;8.29;78.06;92044.03;569207;26;873;-72
2024/04/18 00:38:44;;;;;;;3.17;2.87;;;;;;;8.32;78.05;92047.69;569378;26;766;-72
2024/04/18 00:39:00;;;;;;;3.55;3.10;;;;;;;8.31;77.98;92044.22;569171;26;822;-72
2024/04/18 00:39:15;;;;;;;3.83;3.30;;;;;;;8.28;77.61;92052.88;569220;26;810;-72
2024/04/18 00:39:31;;;;;;;3.22;2.85;;;;;;;8.25;77.33;92049.22;569241;26;913;-72
2024/04/18 00:39:47;;;;;;;3.17;2.70;;;;;;;8.22;77.21;92041.38;569254;26;874;-72
2024/04/18 00:40:03;;;;;;;2.92;2.63;;;;;;;8.22;77.26;92050.34;569230;26;897;-72
2024/04/18 00:40:19;;;;;;;3.80;2.60;;;;;;;8.23;77.17;92051.06;569034;26;1041;-72
2024/04/18 00:40:34;;;;;;;3.92;2.75;;;;;;;8.22;77.22;92053.09;569110;26;846;-72
2024/04/18 00:40:49;;;;;;;3.50;3.17;;;;;;;8.23;77.55;92045.56;569321;26;794;-72
2024/04/18 00:41:06;;;;;;;3.55;2.97;;;;;;;8.22;77.43;92050.34;565192;26;1262;-71
2024/04/18 00:41:22;;;;;;;4.93;3.00;;;;;;;8.18;77.70;92047.28;565286;26;881;-72
2024/04/18 00:41:37;;;;;;;5.70;3.37;;;;;;;8.20;77.58;92041.94;565108;26;814;-72
2024/04/18 00:41:53;;;;;;;3.55;3.08;;;;;;;8.21;77.74;92048.88;565324;26;965;-72
2024/04/18 00:42:08;;;;;;;3.50;3.10;;;;;;;8.21;77.51;92046.13;565183;26;901;-72
2024/04/18 00:42:24;;;;;;;3.47;3.17;;;;;;;8.19;77.53;92048.00;565179;26;897;-72
2024/04/18 00:42:39;;;;;;;3.40;3.10;;;;;;;8.17;77.33;92053.34;565176;26;807;-72
2024/04/18 00:42:55;;;;;;;3.40;3.10;;;;;;;8.07;77.16;92044.28;566255;26;846;-72
2024/04/18 00:43:10;;;;;;;3.23;2.93;;;;;;;8.06;77.26;92042.81;569208;26;782;-72
2024/04/18 00:43:26;;;;;;;3.10;2.80;;;;;;;8.06;77.43;92043.56;569273;26;897;-73
2024/04/18 00:43:41;;;;;;;3.07;2.67;;;;;;;8.07;77.37;92042.28;569310;26;909;-72
2024/04/18 00:43:57;;;;;;;3.47;2.90;;;;;;;8.10;77.27;92037.66;569234;26;813;-72
2024/04/18 00:44:12;;;;;;;3.47;3.10;;;;;;;7.96;77.19;92017.28;569241;26;774;-73
2024/04/18 00:44:28;;;;;;;3.67;2.97;;;;;;;7.99;76.79;92021.66;569139;26;826;-73
2024/04/18 00:44:43;;;;;;;3.47;2.92;;;;;;;8.13;76.95;92039.28;569272;26;806;-72
2024/04/18 00:44:59;;;;;;;3.85;2.90;;;;;;;8.15;76.97;92039.44;569022;26;1242;-73
2024/04/18 00:45:15;;;;;;;3.97;3.03;;;;;;;8.15;77.02;92034.66;569299;26;853;-72
2024/04/18 00:45:30;;;;;;;3.50;3.20;;;;;;;8.15;77.07;92039.44;569187;26;798;-72
2024/04/18 00:45:46;;;;;;;4.03;3.00;;;;;;;8.18;77.09;92038.31;569201;26;826;-72
2024/04/18 00:46:01;;;;;;;3.97;2.90;;;;;;;8.19;77.21;92039.75;569270;26;857;-72
2024/04/18 00:46:17;;;;;;;3.30;3.00;;;;;;;8.02;76.77;92015.03;569253;26;809;-72
2024/04/18 00:46:33;;;;;;;3.53;3.13;;;;;;;8.21;76.97;92039.91;569306;26;833;-73
2024/04/18 00:46:49;;;;;;;3.63;3.23;;;;;;;8.17;76.69;92031.34;569255;26;806;-72
2024/04/18 00:47:04;;;;;;;3.50;3.10;;;;;;;8.17;76.66;92037.56;569346;26;805;-72
2024/04/18 00:47:20;;;;;;;3.53;3.20;;;;;;;8.16;76.77;92033.38;569117;26;832;-73
2024/04/18 00:47:35;;;;;;;3.53;3.22;;;;;;;8.16;76.48;92036.13;565263;26;960;-73
2024/04/18 00:47:51;;;;;;;3.33;3.03;;;;;;;8.18;76.72;92038.31;561492;26;786;-72
2024/04/18 00:48:07;;;;;;;3.80;3.27;;;;;;;8.00;76.64;92010.09;561434;26;865;-73
2024/04/18 00:48:23;;;;;;;3.90;3.47;;;;;;;8.14;76.47;92027.69;557714;26;948;-73
2024/04/18 00:48:38;;;;;;;3.30;3.00;;;;;;;8.18;76.51;92038.31;557692;26;878;-73
2024/04/18 00:48:56;;;;;;;3.73;2.73;;;;;;;8.17;76.78;92032.06;554185;26;830;-72
2024/04/18 00:49:12;;;;;;;4.65;3.25;;;;;;;8.18;76.66;92039.03;554141;26;942;-73
2024/04/18 00:49:27;;;;;;;4.50;3.60;;;;;;;8.18;76.20;92036.28;555391;26;926;-73
2024/04/18 00:49:43;;;;;;;3.80;3.40;;;;;;;8.17;76.20;92037.56;559234;26;957;-73
2024/04/18 00:49:58;;;;;;;3.38;3.08;;;;;;;8.17;76.16;92037.56;561384;26;846;-73
2024/04/18 00:50:16;;;;;;;3.63;3.27;;;;;;;8.17;76.10;92043.06;562847;26;810;-72
2024/04/18 00:50:31;;;;;;;3.83;3.40;;;;;;;8.17;76.16;92043.06;565218;26;854;-72
2024/04/18 00:50:51;;;;;;;3.53;3.22;;;;;;;8.20;76.07;92041.22;563303;26;834;-72
2024/04/18 00:51:06;;;;;;;3.53;3.22;;;;;;;8.20;76.00;92041.22;565081;26;1027;-72
2024/04/18 00:51:22;;;;;;;3.87;3.47;;;;;;;8.21;76.13;92037.88;565125;26;826;-72
2024/04/18 00:51:38;;;;;;;4.15;3.75;;;;;;;8.21;75.83;92040.63;565014;26;1085;-71
2024/04/18 00:51:54;;;;;;;4.13;3.75;;;;;;;8.22;75.95;92044.84;565319;26;810;-72
2024/04/18 00:52:11;;;;;;;3.70;3.40;;;;;;;8.23;75.96;92042.81;565211;26;921;-72
2024/04/18 00:52:27;;;;;;;3.60;3.30;;;;;;;8.17;75.91;92036.84;561368;26;942;-72
2024/04/18 00:52:44;;;;;;;3.35;3.05;;;;;;;7.95;75.75;92013.09;563805;26;949;-72
2024/04/18 00:52:59;;;;;;;3.42;3.13;;;;;;;8.10;75.73;92043.16;561478;26;862;-72
2024/04/18 00:53:15;;;;;;;3.70;3.40;;;;;;;8.12;75.83;92043.31;557730;26;854;-72
2024/04/18 00:53:30;;;;;;;3.38;3.08;;;;;;;8.08;75.58;92040.22;557588;26;977;-72
2024/04/18 00:53:46;;;;;;;3.20;2.80;;;;;;;8.03;75.62;92043.97;557880;26;831;-71
2024/04/18 00:54:02;;;;;;;3.30;3.00;;;;;;;8.02;75.56;92043.25;557849;26;916;-72
2024/04/18 00:54:17;;;;;;;3.45;3.15;;;;;;;8.03;75.65;92044.72;557680;26;827;-72
2024/04/18 00:54:33;;;;;;;3.53;3.10;;;;;;;8.04;75.88;92045.41;557807;26;818;-73
2024/04/18 00:54:49;;;;;;;4.22;3.22;;;;;;;8.06;75.89;92040.81;557747;26;1042;-72
2024/04/18 00:55:06;;;;;;;4.13;3.45;;;;;;;8.07;75.75;92034.03;558624;26;992;-72
2024/04/18 00:55:21;;;;;;;3.58;3.15;;;;;;;8.06;75.79;92032.56;561405;26;1158;-72
2024/04/18 00:55:39;;;;;;;4.40;3.37;;;;;;;8.09;75.76;92042.44;561327;26;787;-72
2024/04/18 00:55:54;;;;;;;3.92;3.53;;;;;;;8.08;76.01;92038.22;561552;26;881;-72
2024/04/18 00:56:10;;;;;;;3.63;3.33;;;;;;;8.09;75.82;92044.44;563009;26;1857;-72
2024/04/18 00:56:25;;;;;;;3.55;3.22;;;;;;;8.08;75.89;92042.97;565323;26;798;-72
2024/04/18 00:56:41;;;;;;;4.67;3.53;;;;;;;8.05;75.86;92041.38;567136;26;861;-73
2024/04/18 00:56:57;;;;;;;4.82;3.58;;;;;;;7.96;75.53;92040.00;569145;26;805;-72
2024/04/18 00:57:12;;;;;;;4.50;3.50;;;;;;;7.95;75.50;92044.03;569194;26;881;-72
2024/04/18 00:57:28;;;;;;;4.57;3.57;;;;;;;7.92;75.54;92039.69;569129;26;912;-72
2024/04/18 00:57:43;;;;;;;3.90;3.50;;;;;;;7.89;75.85;92040.81;569257;26;833;-72
2024/04/18 00:57:59;;;;;;;3.60;3.30;;;;;;;7.87;75.94;92039.91;569195;26;963;-72
2024/04/18 00:58:15;;;;;;;3.75;3.30;;;;;;;7.86;75.67;92046.72;565123;26;968;-72
2024/04/18 00:58:30;;;;;;;3.92;3.50;;;;;;;7.87;75.59;92043.41;565133;26;862;-72
2024/04/18 00:58:47;;;;;;;4.00;3.50;;;;;;;7.87;75.51;92046.16;561520;26;957;-72
2024/04/18 00:59:03;;;;;;;4.07;3.30;;;;;;;7.87;75.64;92045.41;561550;26;1008;-73
2024/04/18 00:59:18;;;;;;;4.38;3.28;;;;;;;7.84;75.68;92039.03;561417;26;786;-73
2024/04/18 00:59:34;;;;;;;4.00;3.37;;;;;;;7.82;75.56;92040.91;561426;26;912;-72
2024/04/18 00:59:50;;;;;;;3.92;3.50;;;;;;;7.81;75.78;92042.91;561311;26;971;-72
2024/04/18 01:00:06;;;;;;;4.00;3.45;;;;;;;7.81;76.17;92042.91;559121;26;850;-72
2024/04/18 01:00:22;;;;;;;4.13;3.72;;;;;;;7.83;76.19;92045.09;561464;26;870;-72
2024/04/18 01:00:39;;;;;;;4.32;3.83;;;;;;;7.83;76.30;92045.09;558965;26;791;-72
2024/04/18 01:00:54;;;;;;;4.22;3.80;;;;;;;7.78;76.30;92051.53;557820;26;870;-72
2024/04/18 01:01:10;;;;;;;4.17;3.77;;;;;;;7.69;76.27;92041.91;553964;26;842;-72
2024/04/18 01:01:26;;;;;;;4.32;3.92;;;;;;;7.64;76.76;92043.59;554096;26;826;-72
2024/04/18 01:01:44;;;;;;;4.28;3.88;;;;;;;7.62;76.98;92045.50;554221;26;865;-72
2024/04/18 01:01:59;;;;;;;4.30;3.90;;;;;;;7.63;77.00;92047.66;555877;26;961;-72
2024/04/18 01:02:15;;;;;;;4.60;4.10;;;;;;;7.61;76.82;92046.75;557705;26;779;-73
2024/04/18 01:02:30;;;;;;;4.70;3.80;;;;;;;7.63;76.89;92035.94;559323;26;845;-73
2024/04/18 01:02:46;;;;;;;4.50;3.60;;;;;;;7.61;76.93;92042.00;562765;26;915;-73
2024/04/18 01:03:01;;;;;;;4.28;3.88;;;;;;;7.61;76.71;92050.25;566728;26;917;-73
2024/04/18 01:03:17;;;;;;;4.43;4.00;;;;;;;7.60;76.66;92048.06;569063;26;937;-72
2024/04/18 01:03:33;;;;;;;4.32;3.83;;;;;;;7.56;77.04;92045.69;569082;26;911;-73
2024/04/18 01:03:49;;;;;;;3.80;3.40;;;;;;;7.50;76.95;92039.00;569066;26;850;-72
2024/04/18 01:04:04;;;;;;;3.47;3.15;;;;;;;7.49;77.00;92049.25;569186;26;961;-72
2024/04/18 01:04:20;;;;;;;4.40;3.47;;;;;;;7.49;76.83;92054.72;569187;26;790;-73
2024/04/18 01:04:38;;;;;;;4.13;3.45;;;;;;;7.49;76.73;92060.22;569103;26;909;-72
2024/04/18 01:04:53;;;;;;;3.45;3.05;;;;;;;7.44;76.91;92052.97;569323;26;900;-73
2024/04/18 01:05:09;;;;;;;3.53;3.17;;;;;;;7.43;76.75;92056.25;569135;26;806;-73
2024/04/18 01:05:24;;;;;;;3.87;3.47;;;;;;;7.35;77.26;92044.63;565214;26;869;-74
2024/04/18 01:05:40;;;;;;;4.35;3.70;;;;;;;7.33;77.15;92047.94;561437;26;818;-72
2024/04/18 01:05:56;;;;;;;4.43;3.58;;;;;;;7.30;77.28;92054.53;557716;26;858;-72
2024/04/18 01:06:11;;;;;;;4.27;3.40;;;;;;;7.31;77.17;92055.25;557823;26;819;-73
2024/04/18 01:06:29;;;;;;;3.90;3.50;;;;;;;7.22;77.70;92053.88;557657;26;922;-73
2024/04/18 01:06:47;;;;;;;3.85;3.55;;;;;;;7.17;78.13;92049.31;557842;26;846;-73
2024/04/18 01:07:03;;;;;;;3.88;3.50;;;;;;;7.15;78.01;92051.91;557724;26;893;-73
2024/04/18 01:07:18;;;;;;;3.73;3.07;;;;;;;7.10;78.32;92052.88;559648;26;775;-72
2024/04/18 01:07:34;;;;;;;3.63;2.97;;;;;;;7.10;78.07;92050.13;563486;26;834;-73
2024/04/18 01:07:49;;;;;;;3.90;3.47;;;;;;;7.13;78.30;92051.00;567183;26;1059;-72
2024/04/18 01:08:05;;;;;;;3.90;3.50;;;;;;;7.10;78.54;92044.63;569117;26;1034;-73
2024/04/18 01:08:20;;;;;;;4.00;3.60;;;;;;;7.08;78.47;92041.69;565123;26;803;-72
2024/04/18 01:08:36;;;;;;;4.05;3.65;;;;;;;7.07;78.01;92045.00;565189;26;972;-72
2024/04/18 01:08:52;;;;;;;4.13;3.73;;;;;;;7.05;78.30;92045.56;561427;26;1194;-72
2024/04/18 01:09:07;;;;;;;4.50;4.05;;;;;;;7.07;78.52;92048.50;561247;26;886;-71
2024/04/18 01:09:23;;;;;;;4.10;3.70;;;;;;;7.09;78.68;92051.41;557667;26;815;-72
2024/04/18 01:09:38;;;;;;;3.80;3.40;;;;;;;7.11;78.50;92048.09;557686;26;842;-72
2024/04/18 01:09:54;;;;;;;3.80;3.40;;;;;;;7.15;78.45;92049.16;554104;26;874;-72
2024/04/18 01:10:09;;;;;;;3.77;3.37;;;;;;;7.18;78.54;92047.31;554885;26;779;-72
2024/04/18 01:10:25;;;;;;;3.53;3.20;;;;;;;7.16;78.37;92044.41;557644;26;906;-72
2024/04/18 01:10:40;;;;;;;3.40;3.10;;;;;;;7.17;78.37;92046.56;558363;26;1268;-74
2024/04/18 01:10:56;;;;;;;3.67;3.38;;;;;;;7.19;78.53;92049.47;561352;26;873;-72
2024/04/18 01:11:11;;;;;;;4.10;3.70;;;;;;;7.15;78.27;92049.16;562042;26;949;-72
2024/04/18 01:11:27;;;;;;;3.95;3.55;;;;;;;7.16;77.83;92041.66;565131;26;787;-72
2024/04/18 01:11:42;;;;;;;3.63;3.33;;;;;;;7.15;78.29;92049.16;565944;26;830;-72
2024/04/18 01:11:57;;;;;;;3.60;3.30;;;;;;;7.16;77.99;92047.88;569190;26;838;-72
2024/04/18 01:12:13;;;;;;;3.87;3.57;;;;;;;7.19;77.74;92046.75;569166;26;940;-73
2024/04/18 01:12:28;;;;;;;4.13;3.73;;;;;;;7.22;77.64;92047.66;569034;26;782;-71
2024/04/18 01:12:57;;;;;;;4.28;3.50;;;;;;;7.23;77.82;92049.84;569301;26;929;-72
2024/04/18 01:13:12;;;;;;;4.00;3.42;;;;;;;7.23;77.92;92044.34;569246;26;810;-72
2024/04/18 01:13:37;;;;;;;4.05;3.65;;;;;;;7.27;78.00;92049.44;568937;26;881;-72
2024/04/18 01:13:53;;;;;;;4.18;3.70;;;;;;;7.25;78.08;92047.28;569206;26;901;-72
2024/04/18 01:14:09;;;;;;;4.33;3.63;;;;;;;7.26;78.11;92053.47;569078;26;810;-72
2024/04/18 01:14:25;;;;;;;3.70;3.38;;;;;;;7.26;77.87;92048.72;569161;26;1053;-72
2024/04/18 01:14:41;;;;;;;3.83;3.43;;;;;;;7.23;77.72;92044.34;565162;26;806;-71
2024/04/18 01:14:56;;;;;;;3.90;3.38;;;;;;;7.22;77.92;92048.38;565030;26;842;-72
2024/04/18 01:15:12;;;;;;;4.28;3.50;;;;;;;7.19;77.79;92041.25;565188;26;794;-72
2024/04/18 01:15:28;;;;;;;6.40;4.00;;;;;;;7.18;78.31;92041.81;565157;26;810;-72
2024/04/18 01:15:43;;;;;;;5.72;3.83;;;;;;;7.19;78.14;92046.75;565220;26;873;-72
2024/04/18 01:16:00;;;;;;;4.20;3.70;;;;;;;7.22;78.34;92051.13;565163;26;937;-72
2024/04/18 01:16:16;;;;;;;4.95;3.63;;;;;;;7.25;78.58;92047.28;565122;26;854;-72
2024/04/18 01:16:31;;;;;;;5.43;3.57;;;;;;;7.27;78.38;92050.19;566542;26;830;-72
2024/04/18 01:16:47;;;;;;;4.78;3.50;;;;;;;7.29;78.49;92047.59;569164;26;972;-71
2024/04/18 01:17:03;;;;;;;4.10;3.70;;;;;;;7.33;78.56;92047.19;569235;26;778;-71
2024/04/18 01:17:18;;;;;;;4.18;3.78;;;;;;;7.34;78.71;92051.41;569248;26;846;-72
2024/04/18 01:17:34;;;;;;;3.97;3.47;;;;;;;7.35;78.87;92045.34;569166;26;849;-72
2024/04/18 01:17:49;;;;;;;5.65;3.35;;;;;;;7.38;78.72;92046.25;569115;26;857;-72